Time;durP1;ratioP1;P1;durP2;ratioP2;P2;SDS_P1;SDS_P2;PMS_P1;PMS_P2;Temp;Humidity;BMP_temperature;BMP_pressure;BME280_temperature;BME280_humidity;BME280_pressure;Samples;Min_cycle;Max_cycle;Signal;HPM_P1;HPM_P2
2023/12/12 00:02:21;;;;;;;31.90;18.90;;;;;;;-1.55;78.96;98868.59;107406;1254;60421;-39
2023/12/12 00:04:49;;;;;;;31.50;18.00;;;;;;;-1.53;79.00;98866.95;107478;1254;73827;-39
2023/12/12 00:07:17;;;;;;;28.50;17.70;;;;;;;-1.55;79.10;98869.98;107423;1254;67729;-39
2023/12/12 00:09:45;;;;;;;35.40;18.80;;;;;;;-1.58;79.40;98866.35;107371;1255;72677;-39
2023/12/12 00:12:12;;;;;;;32.20;18.90;;;;;;;-1.59;79.55;98871.20;107409;1259;60470;-39
2023/12/12 00:14:40;;;;;;;32.50;19.20;;;;;;;-1.64;79.40;98870.61;107423;1254;60347;-39
2023/12/12 00:17:07;;;;;;;30.80;18.40;;;;;;;-1.67;79.54;98875.06;107374;1253;72560;-39
2023/12/12 00:19:40;;;;;;;30.40;17.50;;;;;;;-1.64;79.43;98877.05;107381;1254;67775;-39
2023/12/12 00:22:09;;;;;;;31.90;17.70;;;;;;;-1.58;79.43;98870.61;107496;1257;72751;-39
2023/12/12 00:24:37;;;;;;;31.80;18.10;;;;;;;-1.53;79.36;98862.66;107421;1256;60426;-39
2023/12/12 00:27:05;;;;;;;32.50;19.00;;;;;;;-1.57;79.30;98861.93;107381;1254;60367;-43
2023/12/12 00:29:35;;;;;;;34.00;18.60;;;;;;;-1.60;79.56;98859.92;107389;1253;73865;-39
2023/12/12 00:32:03;;;;;;;33.90;19.10;;;;;;;-1.62;79.53;98860.48;107432;1254;66646;-40
2023/12/12 00:34:31;;;;;;;30.80;17.90;;;;;;;-1.64;79.55;98857.70;107510;1254;72696;-40
2023/12/12 00:36:59;;;;;;;28.10;16.60;;;;;;;-1.60;79.49;98854.64;107435;1259;60186;-40
2023/12/12 00:39:26;;;;;;;29.00;17.80;;;;;;;-1.48;79.45;98852.64;107366;1253;60293;-39
2023/12/12 00:41:56;;;;;;;31.30;17.80;;;;;;;-1.41;79.33;98849.25;107432;1254;73819;-38
2023/12/12 00:44:23;;;;;;;32.40;19.10;;;;;;;-1.39;79.12;98842.94;105903;1253;1003147;-39
2023/12/12 00:46:51;;;;;;;33.90;19.20;;;;;;;-1.40;79.21;98849.92;106640;1257;1003836;-39
2023/12/12 00:49:24;;;;;;;37.10;19.60;;;;;;;-1.42;79.27;98855.29;107362;1254;60537;-39
2023/12/12 00:52:04;;;;;;;34.90;19.40;;;;;;;-1.43;79.12;98859.45;107519;1254;60418;-39
2023/12/12 00:54:37;;;;;;;25.40;14.10;;;;;;;-1.44;78.71;98856.80;107474;1254;72967;-38
2023/12/12 00:57:05;;;;;;;34.50;19.20;;;;;;;-1.41;78.80;98852.62;107467;1254;67565;-38
2023/12/12 00:59:33;;;;;;;34.50;19.60;;;;;;;-1.43;78.89;98852.95;107410;1254;72698;-39
2023/12/12 01:02:00;;;;;;;38.30;20.90;;;;;;;-1.44;79.25;98852.61;107549;1253;60177;-38
2023/12/12 01:04:33;;;;;;;37.90;21.30;;;;;;;-1.44;79.34;98852.88;107624;1254;60437;-38
2023/12/12 01:07:01;;;;;;;37.90;20.30;;;;;;;-1.44;79.14;98847.92;107540;1254;73835;-39
2023/12/12 01:09:29;;;;;;;30.10;16.90;;;;;;;-1.46;79.23;98845.25;106782;1254;1003030;-39
2023/12/12 01:11:57;;;;;;;33.20;17.40;;;;;;;-1.49;78.98;98839.35;106707;1253;1002948;-38
2023/12/12 01:14:25;;;;;;;29.10;17.90;;;;;;;-1.48;78.77;98839.34;107536;1254;61455;-38
2023/12/12 01:16:52;;;;;;;30.40;17.40;;;;;;;-1.47;78.30;98835.02;107447;1253;60312;-38
2023/12/12 01:19:20;;;;;;;31.60;17.70;;;;;;;-1.52;78.43;98833.50;107432;1253;73936;-39
2023/12/12 01:21:48;;;;;;;29.60;17.70;;;;;;;-1.57;78.74;98826.27;107481;1254;67691;-38
2023/12/12 01:24:16;;;;;;;31.30;17.30;;;;;;;-1.60;78.93;98823.71;107418;1254;71719;-39
2023/12/12 01:26:43;;;;;;;28.40;17.10;;;;;;;-1.62;78.76;98829.59;107424;1254;60664;-38
2023/12/12 01:29:11;;;;;;;28.50;17.20;;;;;;;-1.64;78.90;98834.63;107459;1254;60317;-39
2023/12/12 01:31:39;;;;;;;27.00;15.80;;;;;;;-1.61;78.74;98836.64;107533;1252;72532;-38
2023/12/12 01:34:06;;;;;;;24.50;14.80;;;;;;;-1.53;78.24;98827.94;107441;1254;67596;-38
2023/12/12 01:36:34;;;;;;;24.70;15.20;;;;;;;-1.54;78.34;98826.68;107551;1254;72682;-39
2023/12/12 01:39:02;;;;;;;21.70;14.50;;;;;;;-1.58;78.24;98819.42;107442;1254;60500;-39
2023/12/12 01:41:29;;;;;;;24.60;15.80;;;;;;;-1.69;78.41;98803.45;107422;1254;60349;-39
2023/12/12 01:43:57;;;;;;;24.00;15.10;;;;;;;-1.62;78.47;98809.73;107442;1254;73944;-39
2023/12/12 01:46:25;;;;;;;26.10;16.10;;;;;;;-1.67;78.24;98804.77;107459;1259;66465;-38
2023/12/12 01:48:52;;;;;;;26.80;15.90;;;;;;;-1.72;78.21;98813.55;107509;1254;72711;-38
2023/12/12 01:51:20;;;;;;;24.60;15.20;;;;;;;-1.69;77.94;98815.36;107512;1254;60991;-38
2023/12/12 01:53:48;;;;;;;25.90;16.30;;;;;;;-1.64;77.62;98811.14;107483;1254;60447;-39
2023/12/12 01:56:16;;;;;;;24.10;15.10;;;;;;;-1.67;77.84;98807.52;107436;1254;72800;-38
2023/12/12 01:58:46;;;;;;;25.20;15.40;;;;;;;-1.68;77.90;98804.92;107466;1254;66656;-38
2023/12/12 02:01:13;;;;;;;23.60;15.70;;;;;;;-1.71;78.06;98803.13;107467;1254;72744;-38
2023/12/12 02:03:41;;;;;;;26.90;16.90;;;;;;;-1.70;78.23;98786.63;107417;1259;60263;-38
2023/12/12 02:06:11;;;;;;;26.90;16.70;;;;;;;-1.69;78.08;98778.45;107142;1260;231106;-39
2023/12/12 02:09:53;;;;;;;27.20;15.80;;;;;;;-1.66;78.25;98760.45;104261;1289;600515;-38
2023/12/12 02:12:20;;;;;;;24.60;16.10;;;;;;;-1.61;77.61;98760.99;106553;1266;60846;-38
2023/12/12 02:14:48;;;;;;;23.90;15.80;;;;;;;-1.53;77.43;98761.88;106578;1265;59158;-38
2023/12/12 02:17:15;;;;;;;25.60;15.90;;;;;;;-1.52;77.52;98765.09;106629;1266;72116;-39
2023/12/12 02:19:43;;;;;;;27.40;17.10;;;;;;;-1.55;77.38;98763.70;106736;1266;66432;-38
2023/12/12 02:22:11;;;;;;;26.90;15.70;;;;;;;-1.57;77.53;98760.83;106586;1267;72753;-38
2023/12/12 02:24:39;;;;;;;23.60;15.70;;;;;;;-1.60;77.45;98753.92;106537;1265;155184;-38
2023/12/12 02:27:06;;;;;;;26.90;16.60;;;;;;;-1.65;77.03;98759.80;107407;1251;59981;-39
2023/12/12 02:29:34;;;;;;;24.00;14.60;;;;;;;-1.73;76.88;98766.10;107386;1256;71493;-38
2023/12/12 02:32:02;;;;;;;25.10;15.00;;;;;;;-1.76;76.85;98775.25;106714;1251;1003502;-38
2023/12/12 02:34:29;;;;;;;24.90;16.30;;;;;;;-1.76;76.75;98776.38;107451;1253;71442;-38
2023/12/12 02:36:57;;;;;;;22.70;14.60;;;;;;;-1.80;77.11;98772.89;107399;1251;59632;-38
2023/12/12 02:39:25;;;;;;;24.90;14.80;;;;;;;-1.85;77.25;98767.77;107424;1252;60013;-38
2023/12/12 02:41:52;;;;;;;22.60;14.40;;;;;;;-1.86;77.44;98772.77;107429;1251;73101;-38
2023/12/12 02:44:20;;;;;;;24.70;14.90;;;;;;;-1.87;77.48;98766.47;107478;1251;66338;-38
2023/12/12 02:46:47;;;;;;;25.50;14.80;;;;;;;-1.88;77.59;98762.98;107405;1251;73148;-38
2023/12/12 02:49:15;;;;;;;24.60;14.90;;;;;;;-1.87;77.60;98769.29;107456;1253;60084;-38
2023/12/12 02:51:42;;;;;;;21.90;13.70;;;;;;;-1.81;77.38;98771.62;107486;1256;59454;-38
2023/12/12 02:54:10;;;;;;;21.30;13.60;;;;;;;-1.76;76.79;98772.66;107592;1251;73023;-38
2023/12/12 02:56:37;;;;;;;25.50;14.60;;;;;;;-1.86;76.70;98773.94;107593;1251;66638;-38
2023/12/12 02:59:05;;;;;;;24.00;15.00;;;;;;;-1.98;76.86;98770.05;107610;1256;71369;-38
2023/12/12 03:01:32;;;;;;;23.80;15.10;;;;;;;-2.04;77.29;98773.35;107575;1256;59644;-38
2023/12/12 03:04:00;;;;;;;28.70;16.30;;;;;;;-2.14;77.33;98777.91;107510;1251;59547;-38
2023/12/12 03:06:28;;;;;;;25.00;15.30;;;;;;;-2.23;77.49;98771.95;107517;1251;73036;-38
2023/12/12 03:08:55;;;;;;;26.20;15.30;;;;;;;-2.28;77.62;98767.00;107546;1251;67555;-38
2023/12/12 03:11:23;;;;;;;23.20;14.70;;;;;;;-2.26;77.76;98760.63;107558;1251;71396;-38
2023/12/12 03:13:50;;;;;;;23.60;14.90;;;;;;;-2.29;77.95;98754.48;107674;1254;59607;-38
2023/12/12 03:16:18;;;;;;;25.50;15.50;;;;;;;-2.36;78.25;98753.69;107538;1251;59609;-38
2023/12/12 03:18:45;;;;;;;24.20;15.60;;;;;;;-2.50;78.29;98742.02;107550;1251;73468;-38
2023/12/12 03:21:13;;;;;;;24.90;15.50;;;;;;;-2.50;78.67;98749.29;107547;1251;67720;-38
2023/12/12 03:23:41;;;;;;;25.70;15.70;;;;;;;-2.53;78.78;98752.73;107516;1257;71800;-38
2023/12/12 03:26:11;;;;;;;23.70;14.70;;;;;;;-2.48;78.91;98760.09;107543;1253;60910;-38
2023/12/12 03:28:38;;;;;;;21.20;14.50;;;;;;;-2.40;78.63;98765.63;107524;1253;60012;-38
2023/12/12 03:31:06;;;;;;;23.30;15.10;;;;;;;-2.39;78.38;98772.31;107464;1253;71789;-38
2023/12/12 03:33:34;;;;;;;25.60;15.70;;;;;;;-2.47;78.67;98773.66;107497;1251;67574;-38
2023/12/12 03:36:06;;;;;;;23.50;14.90;;;;;;;-2.57;79.02;98770.56;107564;1253;71416;-38
2023/12/12 03:38:34;;;;;;;27.10;17.20;;;;;;;-2.60;79.19;98774.20;107502;1253;59529;-38
2023/12/12 03:41:01;;;;;;;27.50;16.80;;;;;;;-2.62;79.55;98782.06;107477;1251;60025;-38
2023/12/12 03:43:29;;;;;;;26.20;16.20;;;;;;;-2.62;79.23;98783.90;107534;1251;73018;-38
2023/12/12 03:45:56;;;;;;;26.80;17.20;;;;;;;-2.57;79.34;98785.85;107498;1251;67896;-38
2023/12/12 03:48:24;;;;;;;33.40;19.40;;;;;;;-2.58;79.40;98791.39;107532;1251;71428;-38
2023/12/12 03:50:52;;;;;;;32.20;18.90;;;;;;;-2.65;79.68;98791.84;107505;1251;59496;-38
2023/12/12 03:53:19;;;;;;;36.70;18.50;;;;;;;-2.71;79.95;98795.86;107536;1251;59661;-38
2023/12/12 03:55:47;;;;;;;36.10;21.00;;;;;;;-2.87;80.07;98783.17;107500;1251;73008;-38
2023/12/12 03:58:14;;;;;;;32.40;18.50;;;;;;;-2.81;80.28;98802.46;107544;1251;67895;-38
2023/12/12 04:00:42;;;;;;;31.70;19.20;;;;;;;-2.74;80.26;98796.86;107438;1251;72751;-38
2023/12/12 04:03:10;;;;;;;32.30;18.40;;;;;;;-2.65;80.35;98797.20;107458;1257;59651;-38
2023/12/12 04:05:37;;;;;;;30.90;19.10;;;;;;;-2.60;80.40;98790.23;107464;1252;59996;-38
2023/12/12 04:08:05;;;;;;;34.00;19.80;;;;;;;-2.57;80.60;98782.98;107432;1253;71763;-38
2023/12/12 04:10:33;;;;;;;33.90;19.40;;;;;;;-2.55;80.49;98775.84;106669;1253;1003488;-38
2023/12/12 04:13:00;;;;;;;34.90;19.30;;;;;;;-2.54;80.36;98779.43;107491;1253;72505;-38
2023/12/12 04:15:28;;;;;;;35.80;19.20;;;;;;;-2.54;80.54;98777.36;107509;1253;59605;-38
2023/12/12 04:17:55;;;;;;;29.50;17.20;;;;;;;-2.52;80.20;98780.58;107507;1252;60137;-38
2023/12/12 04:20:23;;;;;;;28.10;16.30;;;;;;;-2.47;79.88;98776.78;107541;1253;73032;-38
2023/12/12 04:22:50;;;;;;;32.10;17.80;;;;;;;-2.45;79.55;98770.91;107539;1253;66594;-38
2023/12/12 04:25:19;;;;;;;28.50;17.00;;;;;;;-2.49;79.68;98763.39;107548;1253;72675;-38
2023/12/12 04:27:47;;;;;;;31.10;17.80;;;;;;;-2.51;80.03;98766.81;107502;1253;59640;-38
2023/12/12 04:30:15;;;;;;;29.60;17.30;;;;;;;-2.54;79.92;98770.15;107522;1253;59253;-38
2023/12/12 04:32:42;;;;;;;34.30;17.20;;;;;;;-2.54;80.06;98772.75;107530;1253;71741;-38
2023/12/12 04:35:10;;;;;;;31.80;16.80;;;;;;;-2.58;79.94;98766.96;107540;1257;66274;-38
2023/12/12 04:37:38;;;;;;;25.50;15.80;;;;;;;-2.53;79.84;98763.08;107488;1253;72631;-39
2023/12/12 04:40:07;;;;;;;33.30;17.80;;;;;;;-2.44;79.74;98764.05;107479;1253;59644;-39
2023/12/12 04:42:36;;;;;;;30.50;17.00;;;;;;;-2.42;79.69;98763.86;107602;1253;59635;-39
2023/12/12 04:45:04;;;;;;;33.10;18.20;;;;;;;-2.38;79.91;98768.42;107546;1253;73067;-40
2023/12/12 04:47:32;;;;;;;32.90;18.40;;;;;;;-2.33;80.09;98765.64;107587;1255;66453;-39
2023/12/12 04:50:00;;;;;;;32.00;18.00;;;;;;;-2.32;79.89;98766.98;107527;1253;72911;-39
2023/12/12 04:52:28;;;;;;;31.30;17.50;;;;;;;-2.31;79.86;98767.88;107528;1253;59498;-39
2023/12/12 04:54:55;;;;;;;29.20;16.70;;;;;;;-2.24;79.46;98767.61;107533;1255;59165;-39
2023/12/12 04:57:23;;;;;;;31.50;17.60;;;;;;;-2.16;79.18;98769.13;107538;1252;73025;-39
2023/12/12 04:59:51;;;;;;;27.70;16.50;;;;;;;-2.15;78.85;98770.55;107547;1253;66463;-39
2023/12/12 05:02:19;;;;;;;28.60;17.00;;;;;;;-2.20;78.91;98772.86;107537;1253;72238;-39
2023/12/12 05:04:47;;;;;;;28.60;16.00;;;;;;;-2.21;79.00;98775.21;107521;1253;60117;-39
2023/12/12 05:07:16;;;;;;;28.80;15.50;;;;;;;-2.21;79.09;98780.45;107531;1253;60177;-39
2023/12/12 05:09:44;;;;;;;;;;;;;;;-2.21;78.99;98774.31;107602;1253;73079;-39
2023/12/12 05:12:12;;;;;;;29.50;15.60;;;;;;;-2.20;79.18;98768.89;107561;1253;66289;-39
2023/12/12 05:14:39;;;;;;;30.00;16.40;;;;;;;-2.19;78.94;98777.16;107524;1253;72764;-39
2023/12/12 05:17:07;;;;;;;25.30;14.80;;;;;;;-2.17;78.25;98781.52;107495;1253;59697;-39
2023/12/12 05:19:37;;;;;;;24.30;14.00;;;;;;;-2.14;78.20;98789.02;107528;1253;59592;-39
2023/12/12 05:22:05;;;;;;;24.10;14.50;;;;;;;-2.20;78.40;98791.55;107459;1253;73330;-39
2023/12/12 05:24:33;;;;;;;29.00;14.90;;;;;;;-2.21;78.56;98786.20;107486;1253;67665;-39
2023/12/12 05:27:01;;;;;;;24.50;14.10;;;;;;;-2.23;78.60;98791.33;107524;1253;72648;-39
2023/12/12 05:29:28;;;;;;;27.70;14.70;;;;;;;-2.25;78.65;98789.83;107496;1253;59602;-39
2023/12/12 05:31:56;;;;;;;28.10;13.90;;;;;;;-2.30;78.71;98795.42;107521;1253;60094;-39
2023/12/12 05:34:23;;;;;;;27.10;14.60;;;;;;;-2.28;78.65;98803.89;107503;1253;73043;-39
2023/12/12 05:36:51;;;;;;;22.20;13.00;;;;;;;-2.20;78.58;98795.07;107512;1253;65849;-39
2023/12/12 05:39:18;;;;;;;24.10;13.60;;;;;;;-2.17;78.82;98791.41;107549;1253;71395;-39
2023/12/12 05:41:48;;;;;;;25.70;14.90;;;;;;;-2.16;78.90;98788.73;107515;1253;59473;-39
2023/12/12 05:44:16;;;;;;;25.10;14.10;;;;;;;-2.15;78.86;98790.10;107619;1253;60050;-39
2023/12/12 05:46:43;;;;;;;27.80;14.40;;;;;;;-2.20;78.61;98793.25;107555;1253;73132;-39
2023/12/12 05:49:11;;;;;;;23.70;13.80;;;;;;;-2.28;78.69;98800.28;107546;1253;66606;-39
2023/12/12 05:51:39;;;;;;;23.60;13.20;;;;;;;-2.27;78.81;98796.18;107452;1253;72753;-39
2023/12/12 05:54:13;;;;;;;20.30;12.50;;;;;;;-2.19;78.65;98803.33;106797;1253;1003358;-39
2023/12/12 05:56:43;;;;;;;23.60;11.90;;;;;;;-2.17;78.60;98803.19;107557;1253;59284;-39
2023/12/12 05:59:14;;;;;;;;;;;;;;;-2.16;79.05;98807.33;107603;1253;73533;-39
2023/12/12 06:01:42;;;;;;;28.20;16.30;;;;;;;-2.16;78.99;98813.70;107543;1253;67683;-39
2023/12/12 06:04:11;;;;;;;27.80;15.30;;;;;;;-2.24;78.76;98815.30;107537;1253;72640;-39
2023/12/12 06:06:43;;;;;;;33.30;20.50;;;;;;;-2.31;78.98;98816.14;107556;1253;59801;-39
2023/12/12 06:09:11;;;;;;;40.60;24.80;;;;;;;-2.33;78.85;98818.72;107577;1253;59381;-39
2023/12/12 06:11:39;;;;;;;23.60;15.40;;;;;;;-2.26;79.02;98815.50;107521;1253;73104;-39
2023/12/12 06:14:07;;;;;;;20.60;12.90;;;;;;;-2.26;78.95;98815.96;107628;1253;66985;-39
2023/12/12 06:16:34;;;;;;;23.00;13.50;;;;;;;-2.29;79.22;98816.49;107547;1258;72848;-39
2023/12/12 06:19:04;;;;;;;22.60;13.70;;;;;;;-2.33;79.45;98817.51;107584;1253;60640;-39
2023/12/12 06:21:33;;;;;;;20.70;12.70;;;;;;;-2.36;79.67;98814.89;107551;1253;60360;-39
2023/12/12 06:24:01;;;;;;;20.60;12.30;;;;;;;-2.38;79.65;98810.31;107530;1253;73831;-39
2023/12/12 06:26:30;;;;;;;21.80;13.00;;;;;;;-2.36;79.73;98807.10;106824;1253;1002940;-39
2023/12/12 06:28:58;;;;;;;17.50;10.70;;;;;;;-2.26;79.80;98804.91;107569;1253;71437;-39
2023/12/12 06:31:25;;;;;;;16.90;11.30;;;;;;;-2.12;79.80;98807.05;107544;1253;60569;-39
2023/12/12 06:33:53;;;;;;;19.50;12.10;;;;;;;-2.07;79.62;98806.27;107549;1253;60445;-39
2023/12/12 06:36:22;;;;;;;19.50;11.80;;;;;;;-2.09;79.63;98798.45;107578;1253;73779;-39
2023/12/12 06:38:49;;;;;;;21.00;12.10;;;;;;;-2.09;79.78;98797.02;107619;1253;66367;-39
2023/12/12 06:41:17;;;;;;;21.20;12.30;;;;;;;-2.10;79.75;98792.41;107556;1253;71404;-39
2023/12/12 06:43:44;;;;;;;19.20;12.10;;;;;;;-2.11;79.65;98789.70;107525;1255;60450;-39
2023/12/12 06:46:12;;;;;;;19.90;11.30;;;;;;;-2.01;79.69;98791.15;107551;1258;62289;-39
2023/12/12 06:48:39;;;;;;;18.40;11.30;;;;;;;-1.88;79.35;98788.91;107574;1252;74290;-39
2023/12/12 06:51:09;;;;;;;19.20;13.00;;;;;;;-1.82;79.21;98790.61;107589;1253;66280;-39
2023/12/12 06:53:37;;;;;;;21.80;12.50;;;;;;;-1.75;79.33;98791.27;107569;1252;72775;-39
2023/12/12 06:56:05;;;;;;;19.90;11.90;;;;;;;-1.69;79.13;98790.28;107562;1253;60571;-39
2023/12/12 06:58:33;;;;;;;22.70;12.40;;;;;;;-1.68;78.83;98790.48;107605;1255;60358;-39
2023/12/12 07:01:01;;;;;;;27.70;15.50;;;;;;;-1.68;78.57;98795.84;107560;1253;73830;-39
2023/12/12 07:03:28;;;;;;;20.50;12.00;;;;;;;-1.70;78.63;98791.10;106835;1253;1002836;-39
2023/12/12 07:05:56;;;;;;;23.90;13.20;;;;;;;-1.67;78.29;98793.65;106796;1253;1003703;-39
2023/12/12 07:08:24;;;;;;;21.50;13.00;;;;;;;-1.62;78.24;98794.83;107551;1253;60525;-39
2023/12/12 07:10:51;;;;;;;41.10;21.90;;;;;;;-1.55;78.25;98798.00;107578;1253;60533;-38
2023/12/12 07:13:19;;;;;;;19.50;12.10;;;;;;;-1.50;78.25;98790.52;107585;1253;74257;-39
2023/12/12 07:15:47;;;;;;;22.60;13.20;;;;;;;-1.47;78.24;98783.70;107590;1253;67544;-39
2023/12/12 07:18:14;;;;;;;19.90;12.70;;;;;;;-1.43;78.22;98784.48;107569;1257;71372;-39
2023/12/12 07:20:42;;;;;;;18.40;11.60;;;;;;;-1.42;78.12;98788.45;107545;1253;60237;-39
2023/12/12 07:23:10;;;;;;;20.30;12.30;;;;;;;-1.42;77.67;98792.28;107564;1253;60394;-39
2023/12/12 07:25:39;;;;;;;22.70;12.50;;;;;;;-1.41;77.53;98791.25;107530;1253;73845;-39
2023/12/12 07:28:06;;;;;;;21.20;13.90;;;;;;;-1.30;77.37;98794.60;107603;1259;67877;-39
2023/12/12 07:30:34;;;;;;;18.00;11.90;;;;;;;-1.22;77.48;98795.67;107561;1253;71717;-39
2023/12/12 07:33:02;;;;;;;16.30;10.90;;;;;;;-1.24;76.91;98794.75;107581;1253;60416;-39
2023/12/12 07:35:30;;;;;;;26.90;15.10;;;;;;;-1.31;77.01;98788.07;107564;1253;60159;-39
2023/12/12 07:37:59;;;;;;;20.30;12.30;;;;;;;-1.34;77.14;98792.08;107551;1253;72534;-39
2023/12/12 07:40:30;;;;;;;22.40;13.50;;;;;;;-1.38;77.24;98790.34;107573;1257;66845;-39
2023/12/12 07:42:58;;;;;;;23.60;14.10;;;;;;;-1.41;77.28;98789.13;107572;1253;72655;-39
2023/12/12 07:45:25;;;;;;;19.20;12.60;;;;;;;-1.40;77.31;98785.06;107540;1253;60330;-39
2023/12/12 07:47:53;;;;;;;20.20;12.50;;;;;;;-1.33;77.17;98790.45;107481;1253;60365;-39
2023/12/12 07:50:21;;;;;;;33.70;24.70;;;;;;;-1.29;77.41;98793.48;107489;1253;73853;-39
2023/12/12 07:52:49;;;;;;;31.70;21.70;;;;;;;-1.32;77.17;98805.64;107486;1253;67582;-39
2023/12/12 07:55:19;;;;;;;20.60;13.50;;;;;;;-1.37;77.47;98802.23;107474;1256;71691;-39
2023/12/12 07:57:47;;;;;;;26.20;16.50;;;;;;;-1.43;77.57;98805.86;107491;1259;60449;-39
2023/12/12 08:00:15;;;;;;;18.80;12.20;;;;;;;-1.46;77.81;98804.85;107499;1253;58800;-39
2023/12/12 08:02:43;;;;;;;21.80;12.40;;;;;;;-1.44;77.71;98800.98;107467;1253;71666;-39
2023/12/12 08:05:11;;;;;;;25.70;19.20;;;;;;;-1.39;77.75;98802.42;107483;1253;67608;-39
2023/12/12 08:07:38;;;;;;;23.00;13.60;;;;;;;-1.37;78.07;98806.66;107503;1258;72674;-39
2023/12/12 08:10:07;;;;;;;17.40;11.30;;;;;;;-1.39;78.03;98807.54;107497;1252;60339;-39
2023/12/12 08:12:35;;;;;;;18.40;12.70;;;;;;;-1.45;78.01;98811.48;107574;1253;59670;-39
2023/12/12 08:15:04;;;;;;;16.50;10.90;;;;;;;-1.52;78.27;98828.50;107489;1253;72580;-39
2023/12/12 08:17:32;;;;;;;20.10;12.50;;;;;;;-1.51;78.34;98837.20;107509;1252;68013;-39
2023/12/12 08:20:00;;;;;;;15.60;10.50;;;;;;;-1.49;78.25;98829.73;107490;1254;72661;-39
2023/12/12 08:22:28;;;;;;;17.90;11.60;;;;;;;-1.52;78.31;98836.48;107503;1254;59543;-39
2023/12/12 08:24:56;;;;;;;19.70;12.10;;;;;;;-1.59;78.64;98844.33;107499;1257;59323;-39
2023/12/12 08:27:23;;;;;;;18.50;11.50;;;;;;;-1.67;79.08;98841.31;107422;1257;73858;-39
2023/12/12 08:29:51;;;;;;;15.80;10.60;;;;;;;-1.70;79.25;98839.41;107350;1253;66605;-39
2023/12/12 08:32:18;;;;;;;16.90;11.20;;;;;;;-1.66;79.28;98834.45;107380;1253;72727;-39
2023/12/12 08:34:46;;;;;;;18.80;11.60;;;;;;;-1.61;79.28;98828.89;107349;1253;60352;-39
2023/12/12 08:37:15;;;;;;;18.80;11.70;;;;;;;-1.67;79.20;98826.17;107364;1253;60458;-39
2023/12/12 08:39:43;;;;;;;21.00;13.50;;;;;;;-1.73;79.59;98816.48;107410;1253;73859;-40
2023/12/12 08:42:11;;;;;;;26.60;16.40;;;;;;;-1.75;79.84;98810.48;107350;1253;67595;-40
2023/12/12 08:44:40;;;;;;;22.30;14.10;;;;;;;-1.71;80.21;98811.95;107304;1253;72672;-40
2023/12/12 08:47:07;;;;;;;17.50;10.70;;;;;;;-1.59;80.09;98808.38;107364;1253;60895;-38
2023/12/12 08:49:37;;;;;;;25.70;15.20;;;;;;;-1.44;79.84;98805.66;107388;1253;60285;-38
2023/12/12 08:52:09;;;;;;;18.10;12.30;;;;;;;-1.34;79.31;98798.14;107368;1253;75076;-38
2023/12/12 08:54:36;;;;;;;17.80;11.10;;;;;;;-1.32;79.12;98789.70;107348;1258;67626;-39
2023/12/12 08:57:04;;;;;;;15.90;11.00;;;;;;;-1.31;79.49;98781.55;107355;1253;71489;-38
2023/12/12 08:59:32;;;;;;;15.70;10.10;;;;;;;-1.21;79.37;98783.73;107331;1253;60430;-38
2023/12/12 09:02:01;;;;;;;18.40;10.90;;;;;;;-1.14;79.12;98778.60;107369;1253;60292;-38
2023/12/12 09:04:28;;;;;;;12.40;8.20;;;;;;;-1.02;78.37;98783.51;107653;1253;73825;-38
2023/12/12 09:06:56;;;;;;;13.90;9.30;;;;;;;-0.91;77.88;98796.11;107376;1253;66969;-38
2023/12/12 09:09:25;;;;;;;16.20;11.50;;;;;;;-0.87;78.01;98802.64;107616;1254;72673;-37
2023/12/12 09:11:54;;;;;;;18.60;13.20;;;;;;;-0.83;77.72;98806.92;107384;1255;60439;-37
2023/12/12 09:14:22;;;;;;;20.20;14.30;;;;;;;-0.83;77.26;98804.00;107368;1256;60324;-37
2023/12/12 09:16:49;;;;;;;15.90;10.80;;;;;;;-0.87;76.99;98806.04;107337;1256;71769;-37
2023/12/12 09:19:17;;;;;;;16.20;10.30;;;;;;;-0.94;77.07;98803.90;107343;1256;68061;-37
2023/12/12 09:21:48;;;;;;;14.30;9.80;;;;;;;-0.88;77.29;98805.85;107335;1256;72674;-37
2023/12/12 09:24:16;;;;;;;;;;;;;;;-0.78;77.12;98801.21;107369;1256;60448;-38
2023/12/12 09:26:44;;;;;;;14.80;10.20;;;;;;;-0.76;76.81;98796.23;107367;1254;60557;-38
2023/12/12 09:29:12;;;;;;;16.10;11.00;;;;;;;-0.82;76.50;98791.94;107363;1258;73830;-38
2023/12/12 09:31:39;;;;;;;16.70;10.60;;;;;;;-0.90;76.85;98790.08;107358;1256;67638;-38
2023/12/12 09:34:07;;;;;;;18.10;11.10;;;;;;;-0.96;76.92;98786.63;107375;1256;72723;-38
2023/12/12 09:36:35;;;;;;;17.20;10.70;;;;;;;-0.99;77.12;98777.29;107340;1256;60925;-38
2023/12/12 09:39:07;;;;;;;15.00;10.10;;;;;;;-0.93;77.20;98783.11;107383;1254;60563;-38
2023/12/12 09:41:34;;;;;;;17.10;11.20;;;;;;;-0.85;76.75;98778.64;107366;1253;73876;-38
2023/12/12 09:44:02;;;;;;;18.40;12.00;;;;;;;-0.89;76.57;98771.28;107483;1256;67585;-38
2023/12/12 09:46:30;;;;;;;15.50;10.40;;;;;;;-0.93;77.21;98772.38;107354;1257;73159;-38
2023/12/12 09:48:58;;;;;;;17.40;11.20;;;;;;;-0.94;76.96;98775.33;107391;1256;60332;-38
2023/12/12 09:51:26;;;;;;;18.20;11.00;;;;;;;-0.99;77.22;98776.59;107368;1256;61013;-38
2023/12/12 09:53:54;;;;;;;15.60;10.20;;;;;;;-0.93;77.14;98775.30;107366;1254;73896;-38
2023/12/12 09:56:23;;;;;;;19.50;12.30;;;;;;;-0.81;77.13;98775.48;107333;1254;66444;-39
2023/12/12 09:58:51;;;;;;;17.70;11.50;;;;;;;-0.78;77.00;98767.69;107348;1257;72700;-38
2023/12/12 10:01:18;;;;;;;18.00;11.70;;;;;;;-0.74;76.96;98762.48;107368;1256;60339;-38
2023/12/12 10:03:46;;;;;;;19.20;12.20;;;;;;;-0.72;76.76;98765.58;107386;1254;60528;-38
2023/12/12 10:06:14;;;;;;;19.60;12.60;;;;;;;-0.72;76.59;98767.29;107304;1254;71719;-38
2023/12/12 10:08:41;;;;;;;22.40;12.20;;;;;;;-0.73;76.44;98771.36;107325;1256;67203;-38
2023/12/12 10:11:09;;;;;;;21.30;12.70;;;;;;;-0.71;76.19;98769.77;107248;1254;72880;-38
2023/12/12 10:13:53;;;;;;;32.50;20.90;;;;;;;-0.67;76.22;98774.89;107343;1256;60552;-38
2023/12/12 10:16:21;;;;;;;20.10;14.10;;;;;;;-0.70;76.18;98780.73;107453;1256;60464;-38
2023/12/12 10:18:51;;;;;;;33.90;24.40;;;;;;;-0.75;76.38;98771.66;107313;1255;73902;-38
2023/12/12 10:21:20;;;;;;;29.40;17.80;;;;;;;-0.76;76.88;98770.61;107442;1258;67750;-38
2023/12/12 10:23:52;;;;;;;27.90;16.20;;;;;;;-0.74;76.97;98770.17;107412;1256;71821;-38
2023/12/12 10:26:38;;;;;;;29.80;19.40;;;;;;;-0.67;76.62;98770.73;107415;1256;60906;-38
2023/12/12 10:29:06;;;;;;;38.70;26.40;;;;;;;-0.60;76.22;98775.02;107362;1254;60447;-38
2023/12/12 10:31:35;;;;;;;23.90;17.00;;;;;;;-0.64;76.15;98768.91;107320;1254;73834;-38
2023/12/12 10:34:03;;;;;;;30.80;21.80;;;;;;;-0.64;76.30;98770.83;107458;1256;67537;-38
2023/12/12 10:36:31;;;;;;;34.60;22.40;;;;;;;-0.64;76.42;98767.91;107386;1257;71398;-38
2023/12/12 10:39:12;;;;;;;28.60;16.30;;;;;;;-0.62;76.74;98772.39;107326;1256;60976;-38
2023/12/12 10:41:41;;;;;;;25.10;16.30;;;;;;;-0.55;76.34;98774.25;107385;1255;60329;-37
2023/12/12 10:44:08;;;;;;;23.60;15.80;;;;;;;-0.42;76.13;98778.74;107415;1255;73886;-38
2023/12/12 10:46:36;;;;;;;24.20;15.40;;;;;;;-0.38;75.43;98775.20;107321;1254;67926;-38
2023/12/12 10:49:04;;;;;;;24.20;16.30;;;;;;;-0.41;75.45;98775.77;107386;1254;72699;-38
2023/12/12 10:51:32;;;;;;;25.20;16.20;;;;;;;-0.45;75.75;98775.84;107091;1256;60508;-39
2023/12/12 10:53:59;;;;;;;26.30;17.10;;;;;;;-0.48;75.48;98774.23;107469;1254;59697;-39
2023/12/12 10:56:28;;;;;;;29.20;16.70;;;;;;;-0.57;75.21;98779.95;107325;1254;74177;-39
2023/12/12 10:58:56;;;;;;;20.30;12.20;;;;;;;-0.66;75.25;98780.80;107349;1256;66437;-39
2023/12/12 11:01:45;;;;;;;27.50;15.00;;;;;;;-0.62;75.60;98784.95;107284;1254;71456;-39
2023/12/12 11:04:17;;;;;;;29.10;17.60;;;;;;;-0.62;75.90;98791.66;107505;1255;60444;-39
2023/12/12 11:06:45;;;;;;;27.20;17.20;;;;;;;-0.67;75.69;98795.07;107394;1258;60361;-39
2023/12/12 11:09:15;;;;;;;34.90;19.40;;;;;;;-0.74;75.84;98792.92;107311;1254;72546;-39
2023/12/12 11:11:43;;;;;;;30.40;18.20;;;;;;;-0.79;76.24;98787.94;107309;1256;68070;-39
2023/12/12 11:14:11;;;;;;;34.80;19.00;;;;;;;-0.82;76.33;98790.34;107304;1260;71562;-39
2023/12/12 11:16:39;;;;;;;31.80;18.50;;;;;;;-0.77;76.50;98792.59;107332;1254;60502;-38